This demonstration page uses our WeatherBlox Daily Observations layout. Learn more.

39.92423, -83.80882

Hourly Observations for May 6, 2015

Temp ( °F °C ) Dew Point ( °F °C ) Humidity (%) Winds ( mph kmh ) Pressure ( in mb ) Visibility ( mi km ) Precip ( " mm )
12:56 am 00:56 Clear 64 17.7 55 12.7 73 73 SSW 3 6 30.2 1023 7 11.26538 0 0
1:56 am 01:56 Clear 60 15.5 55 12.7 84 84 Calm 30.2 1023 7 11.26538 0 0
2:56 am 02:56 Clear 59 15 55 12.7 86 86 N 3 6 30.19 1022 7 11.26538 0 0
3:56 am 03:56 Clear with Mist and Fog 59 15 55 12.7 86 86 S 6 9 30.2 1023 6 9.65604 0 0
4:56 am 04:56 Clear 59 15 54 12.2 83 83 Calm 30.2 1023 7 11.26538 0 0
5:56 am 05:56 Clear with Mist and Fog 55 12.7 52 11.1 90 90 Calm 30.2 1023 6 9.65604 0 0
6:56 am 06:56 Sunny with Mist and Fog 54 12.2 53 11.6 96 96 Calm 30.21 1023 5 8.0467 0 0
7:56 am 07:56 Sunny with Mist and Fog 61 16.1 58 14.4 90 90 Calm 30.22 1023 5 8.0467 0 0
8:56 am 08:56 Hazy 70 21.1 59 15 68 68 SW 3 6 30.22 1023 5 8.0467 0 0
9:56 am 09:56 Hazy 75 23.8 59 15 58 58 WSW 6 9 30.22 1023 6 9.65604 0 0
10:56 am 10:56 Hazy 78 25.5 57 13.8 48 48 WNW 7 11 30.22 1023 6 9.65604 0 0
11:56 am 11:56 Hazy 81 27.2 57 13.8 44 44 NW 8 13 30.22 1023 6 9.65604 0 0
12:56 pm 12:56 Hazy 83 28.3 56 13.3 40 40 VRB 3 6 30.2 1023 6 9.65604 0 0
1:56 pm 13:56 Hazy 83 28.3 57 13.8 41 41 WNW 8 13 30.19 1022 6 9.65604 0 0
2:56 pm 14:56 Hazy 82 27.7 55 12.7 40 40 VRB 6 9 30.18 1022 6 9.65604 0 0
3:56 pm 15:56 Hazy 86 30 54 12.2 33 33 VRB 3 6 30.15 1021 5 8.0467 0 0
4:56 pm 16:56 Hazy 85 29.4 58 14.4 40 40 NNW 6 9 30.13 1020 6 9.65604 0 0
5:56 pm 17:56 Hazy 85 29.4 57 13.8 38 38 VRB 5 7 30.13 1020 6 9.65604 0 0
6:56 pm 18:56 Hazy 79 26.1 58 14.4 49 49 NW 6 9 30.12 1020 5 8.0467 0 0
7:56 pm 19:56 Hazy 77 25 59 15 54 54 NE 7 11 30.11 1020 5 8.0467 0 0
8:56 pm 20:56 Clear 72 22.2 58 14.4 61 61 NNE 5 7 30.11 1020 7 11.26538 0 0
9:56 pm 21:56 Clear 69 20.5 58 14.4 68 68 ENE 5 7 30.13 1020 7 11.26538 0 0
10:56 pm 22:56 Clear 67 19.4 58 14.4 73 73 ENE 6 9 30.14 1021 7 11.26538 0 0
11:56 pm 23:56 Hazy 65 18.3 58 14.4 78 78 E 6 9 30.14 1021 6 9.65604 0 0

Powered by AerisWeather